Akebono — JG5644 — position and weather

sailwx.info

Track history (hours):
 
Tides and Currents Weather Stations Pressure Air Temp Water Temp Dewpoint Dewpoint Depression Visibility Wind Speed Wind Dir Waves Ship Positions

Akebono

Last reported at 2017-Jul-28 06:42 UTC. Time now 2017-Jul-28 18:46 UTC.
Position N 35°31' E 140°01'.

Length 33 m; draft 4.4 m.

Type: Tug. MMSI: 431000233.

Date/timePositionNaut miles runAvg speedWind from/ knotsBaromVisibWave heightAir tempDewpointWater temp
2017-Jul-28 06:42N 35°31' E 140°01'4 7.0
2017-Jul-28 06:04N 35°30' E 139°56'1 6.1
2017-Jul-28 05:59N 35°30' E 139°56'3 1.0
2017-Jul-28 02:42N 35°32' E 139°58'1 4.9
2017-Jul-28 02:30N 35°31' E 139°59'2 1.6
2017-Jul-28 01:13N 35°30' E 140°01'2 4.4
2017-Jul-28 00:49N 35°31' E 139°60'2 5.1
2017-Jul-28 00:30N 35°31' E 139°58'1 1.0
2017-Jul-27 23:56N 35°32' E 139°57'3 0.1
2017-Jul-26 02:39N 35°29' E 139°58'0 1.4
2017-Jul-26 02:30N 35°28' E 139°58'0 0.2
2017-Jul-26 02:00N 35°28' E 139°58'  
2017-Jul-23 02:16N 35°30' E 139°56'1 2.0
2017-Jul-23 01:43N 35°30' E 139°55'1 4.2
2017-Jul-23 01:29N 35°29' E 139°54'1 1.3
2017-Jul-23 00:59N 35°29' E 139°55'0 0.4
2017-Jul-23 00:17N 35°29' E 139°55'0 0.0
2017-Jul-23 00:00N 35°29' E 139°55'0 0.0
2017-Jul-22 23:30N 35°29' E 139°55'5 9.3
2017-Jul-22 23:00N 35°33' E 139°57'1 2.7
2017-Jul-22 22:27N 35°32' E 139°59'7 0.4
2017-Jul-22 06:54N 35°35' E 140°06'7 3.1
2017-Jul-22 04:42N 35°31' E 139°60'2 7.4
2017-Jul-22 04:30N 35°30' E 139°59'1 1.4
2017-Jul-22 03:24N 35°29' E 140°01'1 0.9
2017-Jul-22 02:51N 35°29' E 140°01'0 0.0
2017-Jul-22 02:29N 35°29' E 140°01'0 0.0
2017-Jul-22 02:00N 35°29' E 140°01'0 0.0
2017-Jul-22 01:23N 35°29' E 140°01'2 4.6
2017-Jul-22 01:00N 35°31' E 140°01'4 3.3
2017-Jul-21 23:50N 35°33' E 140°05'4 0.2
2017-Jul-21 00:19N 35°30' E 140°01'7 0.3
2017-Jul-19 22:42N 35°36' E 140°06'0 0.0
2017-Jul-19 22:28N 35°36' E 140°06'9 7.1
2017-Jul-19 21:13N 35°31' E 139°56'0 1.9
2017-Jul-19 21:01N 35°32' E 139°57'3 0.2
2017-Jul-19 03:42N 35°30' E 139°59'2 6.1
2017-Jul-19 03:27N 35°28' E 139°59'  
Track history (hours):
 
Tides and Currents Weather Stations Pressure Air Temp Water Temp Dewpoint Dewpoint Depression Visibility Wind Speed Wind Dir Waves Ship Positions

Akebono

Last reported at 2017-Jul-28 06:42 UTC. Time now 2017-Jul-28 18:46 UTC.
Position N 35°31' E 140°01'.

Length 33 m; draft 4.4 m.

Type: Tug. MMSI: 431000233.

Date/timePositionNaut miles runAvg speedWind from/ knotsBaromVisibWave heightAir tempDewpointWater temp
2017-Jul-28 06:42N 35°31' E 140°01'4 7.0
2017-Jul-28 06:04N 35°30' E 139°56'1 6.1
2017-Jul-28 05:59N 35°30' E 139°56'3 1.0
2017-Jul-28 02:42N 35°32' E 139°58'1 4.9
2017-Jul-28 02:30N 35°31' E 139°59'2 1.6
2017-Jul-28 01:13N 35°30' E 140°01'2 4.4
2017-Jul-28 00:49N 35°31' E 139°60'2 5.1
2017-Jul-28 00:30N 35°31' E 139°58'1 1.0
2017-Jul-27 23:56N 35°32' E 139°57'3 0.1
2017-Jul-26 02:39N 35°29' E 139°58'0 1.4
2017-Jul-26 02:30N 35°28' E 139°58'0 0.2
2017-Jul-26 02:00N 35°28' E 139°58'  
2017-Jul-23 02:16N 35°30' E 139°56'1 2.0
2017-Jul-23 01:43N 35°30' E 139°55'1 4.2
2017-Jul-23 01:29N 35°29' E 139°54'1 1.3
2017-Jul-23 00:59N 35°29' E 139°55'0 0.4
2017-Jul-23 00:17N 35°29' E 139°55'0 0.0
2017-Jul-23 00:00N 35°29' E 139°55'0 0.0
2017-Jul-22 23:30N 35°29' E 139°55'5 9.3
2017-Jul-22 23:00N 35°33' E 139°57'1 2.7
2017-Jul-22 22:27N 35°32' E 139°59'7 0.4
2017-Jul-22 06:54N 35°35' E 140°06'7 3.1
2017-Jul-22 04:42N 35°31' E 139°60'2 7.4
2017-Jul-22 04:30N 35°30' E 139°59'1 1.4
2017-Jul-22 03:24N 35°29' E 140°01'1 0.9
2017-Jul-22 02:51N 35°29' E 140°01'0 0.0
2017-Jul-22 02:29N 35°29' E 140°01'0 0.0
2017-Jul-22 02:00N 35°29' E 140°01'0 0.0
2017-Jul-22 01:23N 35°29' E 140°01'2 4.6
2017-Jul-22 01:00N 35°31' E 140°01'4 3.3
2017-Jul-21 23:50N 35°33' E 140°05'4 0.2
2017-Jul-21 00:19N 35°30' E 140°01'7 0.3
2017-Jul-19 22:42N 35°36' E 140°06'0 0.0
2017-Jul-19 22:28N 35°36' E 140°06'9 7.1
2017-Jul-19 21:13N 35°31' E 139°56'0 1.9
2017-Jul-19 21:01N 35°32' E 139°57'3 0.2
2017-Jul-19 03:42N 35°30' E 139°59'2 6.1
2017-Jul-19 03:27N 35°28' E 139°59'  

Dump ship's entire track history